createdAt,value
2022-10-06T00:01:23.675Z,7.99
2022-10-06T00:03:50.408Z,7.99
2022-10-06T00:06:21.827Z,7.98
2022-10-06T00:08:48.740Z,8.00
2022-10-06T00:11:18.000Z,7.97
2022-10-06T00:13:45.654Z,7.92
2022-10-06T00:16:18.609Z,7.90
2022-10-06T00:18:45.889Z,7.85
2022-10-06T00:21:14.375Z,7.83
2022-10-06T00:23:41.959Z,7.83
2022-10-06T00:26:17.695Z,7.85
2022-10-06T00:28:47.685Z,7.82
2022-10-06T00:31:15.105Z,7.82
2022-10-06T00:33:41.857Z,7.85
2022-10-06T00:36:08.843Z,7.81
2022-10-06T00:38:35.616Z,7.81
2022-10-06T00:41:02.618Z,7.81
2022-10-06T00:43:49.197Z,7.85
2022-10-06T00:46:22.363Z,7.80
2022-10-06T00:49:26.146Z,7.76
2022-10-06T00:51:58.749Z,7.72
2022-10-06T00:54:28.331Z,7.72
2022-10-06T00:56:58.387Z,7.73
2022-10-06T00:59:25.076Z,7.73
2022-10-06T01:02:01.750Z,7.68
2022-10-06T01:04:33.738Z,7.68
2022-10-06T01:07:01.636Z,7.66
2022-10-06T01:09:30.568Z,7.62
2022-10-06T01:12:01.421Z,7.57
2022-10-06T01:14:29.251Z,7.50
2022-10-06T01:17:02.736Z,7.48
2022-10-06T01:20:04.940Z,7.43
2022-10-06T01:22:41.560Z,7.35
2022-10-06T01:25:10.183Z,7.30
2022-10-06T01:27:38.974Z,7.30
2022-10-06T01:30:08.616Z,7.29
2022-10-06T01:32:38.300Z,7.28
2022-10-06T01:35:07.570Z,7.25
2022-10-06T01:37:35.655Z,7.20
2022-10-06T01:40:02.300Z,7.16
2022-10-06T01:42:31.895Z,7.16
2022-10-06T01:44:59.557Z,7.12
2022-10-06T01:47:26.259Z,7.15
2022-10-06T01:49:54.922Z,7.11
2022-10-06T01:52:22.005Z,7.10
2022-10-06T01:54:49.589Z,7.06
2022-10-06T01:57:19.295Z,7.06
2022-10-06T01:59:45.868Z,7.08
2022-10-06T02:02:12.518Z,7.04
2022-10-06T02:04:40.133Z,7.05
2022-10-06T02:07:07.702Z,7.04
2022-10-06T02:09:34.367Z,7.01
2022-10-06T02:12:01.933Z,7.02
2022-10-06T02:14:30.474Z,7.00
2022-10-06T02:17:07.243Z,6.98
2022-10-06T02:19:47.783Z,6.98
2022-10-06T02:22:23.221Z,6.98
2022-10-06T02:24:50.051Z,6.95
2022-10-06T02:27:25.016Z,7.00
2022-10-06T02:29:52.168Z,6.98
2022-10-06T02:32:18.861Z,6.98
2022-10-06T02:34:46.332Z,6.98
2022-10-06T02:37:17.927Z,6.99
2022-10-06T02:39:45.980Z,6.99
2022-10-06T02:42:13.551Z,6.98
2022-10-06T02:44:40.692Z,7.01
2022-10-06T02:47:26.362Z,7.04
2022-10-06T02:50:07.665Z,7.02
2022-10-06T02:52:36.683Z,7.03
2022-10-06T02:55:06.186Z,7.03
2022-10-06T02:57:33.791Z,7.02
2022-10-06T03:00:01.365Z,7.03
2022-10-06T03:02:31.982Z,7.02
2022-10-06T03:05:06.586Z,7.02
2022-10-06T03:07:34.173Z,7.01
2022-10-06T03:10:01.793Z,6.98
2022-10-06T03:12:35.194Z,7.00
2022-10-06T03:15:11.988Z,7.03
2022-10-06T03:17:38.709Z,7.06
2022-10-06T03:20:08.817Z,7.04
2022-10-06T03:22:45.681Z,7.06
2022-10-06T03:25:16.240Z,7.06
2022-10-06T03:27:43.484Z,7.04
2022-10-06T03:30:10.467Z,7.04
2022-10-06T03:32:38.240Z,7.03
2022-10-06T03:35:05.758Z,7.04
2022-10-06T03:37:34.345Z,7.08
2022-10-06T03:40:01.930Z,7.09
2022-10-06T03:42:29.525Z,7.08
2022-10-06T03:48:00.152Z,7.11
2022-10-06T03:50:26.950Z,7.10
2022-10-06T03:52:57.022Z,7.09
2022-10-06T03:55:32.865Z,7.08
2022-10-06T03:57:59.733Z,7.12
2022-10-06T04:00:26.588Z,7.14
2022-10-06T04:02:58.940Z,7.15
2022-10-06T04:05:31.752Z,7.12
2022-10-06T04:07:58.650Z,7.12
2022-10-06T04:10:25.339Z,7.13
2022-10-06T04:12:52.420Z,7.17
2022-10-06T04:15:19.181Z,7.18
2022-10-06T04:17:46.957Z,7.17
2022-10-06T04:20:21.443Z,7.18
2022-10-06T04:22:48.146Z,7.19
2022-10-06T04:25:14.877Z,7.19
2022-10-06T04:27:41.507Z,7.18
2022-10-06T04:30:08.679Z,7.20
2022-10-06T04:32:35.384Z,7.21
2022-10-06T04:35:03.089Z,7.19
2022-10-06T04:37:32.558Z,7.22
2022-10-06T04:40:00.280Z,7.20
2022-10-06T04:42:34.915Z,7.20
2022-10-06T04:45:02.498Z,7.19
2022-10-06T04:50:32.800Z,7.25
2022-10-06T04:52:59.785Z,7.27
2022-10-06T04:55:26.480Z,7.29
2022-10-06T04:57:58.204Z,7.32
2022-10-06T05:00:28.960Z,7.34
2022-10-06T05:02:57.788Z,7.34
2022-10-06T05:05:25.382Z,7.35
2022-10-06T05:07:52.099Z,7.36
2022-10-06T05:10:19.543Z,7.35
2022-10-06T05:12:47.148Z,7.39
2022-10-06T05:15:15.735Z,7.43
2022-10-06T05:24:37.948Z,7.49
2022-10-06T05:27:07.548Z,7.49
2022-10-06T05:29:34.949Z,7.52
2022-10-06T05:32:15.718Z,7.50
2022-10-06T05:34:45.164Z,7.45
2022-10-06T05:37:11.973Z,7.47
2022-10-06T05:39:39.740Z,7.45
2022-10-06T05:42:06.414Z,7.45
2022-10-06T05:44:34.605Z,7.42
2022-10-06T05:47:01.489Z,7.44
2022-10-06T05:49:28.241Z,7.45
2022-10-06T05:51:58.509Z,7.46
2022-10-06T05:54:26.085Z,7.43
2022-10-06T05:56:53.669Z,7.44
2022-10-06T05:59:20.331Z,7.45
2022-10-06T06:01:47.216Z,7.46
2022-10-06T06:04:14.299Z,7.46
2022-10-06T06:06:43.829Z,7.50
2022-10-06T06:09:13.616Z,7.52
2022-10-06T06:11:43.467Z,7.51
2022-10-06T06:14:14.253Z,7.52
2022-10-06T06:16:48.229Z,7.50
2022-10-06T06:19:19.047Z,7.52
2022-10-06T06:21:48.681Z,7.51
2022-10-06T06:24:15.347Z,7.51
2022-10-06T06:26:42.109Z,7.45
2022-10-06T06:29:09.396Z,7.37
2022-10-06T06:31:39.063Z,7.30
2022-10-06T06:34:09.434Z,7.21
2022-10-06T06:36:47.261Z,7.13
2022-10-06T06:39:15.823Z,7.06
2022-10-06T06:41:49.434Z,7.04
2022-10-06T06:44:17.189Z,7.01
2022-10-06T06:46:48.308Z,7.03
2022-10-06T06:49:16.681Z,6.99
2022-10-06T06:51:49.661Z,7.01
2022-10-06T06:54:17.156Z,7.03
2022-10-06T06:56:46.014Z,7.03
2022-10-06T06:59:13.607Z,7.00
2022-10-06T07:01:45.800Z,6.95
2022-10-06T07:04:14.269Z,7.03
2022-10-06T07:06:42.383Z,7.06
2022-10-06T07:09:12.828Z,7.11
2022-10-06T07:11:40.438Z,7.21
2022-10-06T07:14:12.698Z,7.26
2022-10-06T07:16:59.333Z,7.31
2022-10-06T07:19:45.047Z,7.35
2022-10-06T07:22:30.194Z,7.41
2022-10-06T07:25:12.654Z,7.47
2022-10-06T07:27:42.797Z,7.51
2022-10-06T07:30:29.021Z,7.56
2022-10-06T07:32:56.082Z,7.62
2022-10-06T07:35:24.636Z,7.63
2022-10-06T07:37:53.392Z,7.69
2022-10-06T07:40:20.315Z,7.75
2022-10-06T07:42:52.312Z,7.84
2022-10-06T07:45:40.699Z,8.00
2022-10-06T07:48:18.257Z,8.10
2022-10-06T07:50:48.926Z,8.20
2022-10-06T07:53:19.258Z,8.27
2022-10-06T07:55:50.264Z,8.36
2022-10-06T07:58:19.712Z,8.45
2022-10-06T08:00:50.237Z,8.54
2022-10-06T08:03:23.054Z,8.63
2022-10-06T08:05:57.928Z,8.70
2022-10-06T08:08:25.578Z,8.77
2022-10-06T08:10:54.428Z,8.87
2022-10-06T08:13:21.609Z,8.95
2022-10-06T08:15:50.593Z,9.04
2022-10-06T08:18:52.957Z,9.13
2022-10-06T08:21:22.365Z,9.21
2022-10-06T08:23:51.130Z,9.28
2022-10-06T08:26:19.656Z,9.36
2022-10-06T08:28:54.284Z,9.44
2022-10-06T08:31:22.698Z,9.53
2022-10-06T08:33:54.598Z,9.60
2022-10-06T08:36:21.526Z,9.69
2022-10-06T08:38:50.115Z,9.79
2022-10-06T08:41:32.137Z,9.88
2022-10-06T08:44:16.617Z,9.93
2022-10-06T08:46:46.792Z,10.02
2022-10-06T08:49:22.119Z,10.10
2022-10-06T08:52:12.870Z,10.22
2022-10-06T08:54:58.404Z,10.32
2022-10-06T08:57:42.476Z,10.43
2022-10-06T09:00:14.231Z,10.51
2022-10-06T09:02:47.079Z,10.61
2022-10-06T09:05:25.280Z,10.73
2022-10-06T09:08:29.606Z,10.83
2022-10-06T09:11:14.925Z,10.96
2022-10-06T09:13:53.279Z,11.10
2022-10-06T09:16:30.919Z,11.18
2022-10-06T09:19:33.530Z,11.28
2022-10-06T09:22:04.655Z,11.39
2022-10-06T09:24:37.536Z,11.44
2022-10-06T09:27:33.842Z,11.50
2022-10-06T09:30:04.883Z,11.55
2022-10-06T09:32:33.306Z,11.61
2022-10-06T09:35:00.022Z,11.66
2022-10-06T09:37:27.380Z,11.72
2022-10-06T09:39:54.735Z,11.77
2022-10-06T09:42:26.380Z,11.83
2022-10-06T09:45:01.130Z,11.92
2022-10-06T09:47:34.836Z,11.97
2022-10-06T09:50:22.148Z,11.98
2022-10-06T09:52:59.219Z,11.98
2022-10-06T09:55:29.176Z,11.93
2022-10-06T09:57:57.375Z,12.02
2022-10-06T10:00:37.423Z,12.22
2022-10-06T10:03:11.777Z,12.46
2022-10-06T10:05:46.137Z,12.63
2022-10-06T10:08:32.262Z,12.77
2022-10-06T10:11:07.901Z,12.88
2022-10-06T10:13:43.234Z,12.96
2022-10-06T10:16:19.955Z,13.02
2022-10-06T10:18:48.121Z,12.98
2022-10-06T10:21:33.352Z,12.96
2022-10-06T10:24:03.925Z,12.91
2022-10-06T10:26:53.797Z,12.97
2022-10-06T10:30:02.374Z,13.01
2022-10-06T10:33:07.635Z,12.97
2022-10-06T10:35:40.631Z,13.04
2022-10-06T10:38:19.102Z,13.07
2022-10-06T10:40:50.531Z,13.10
2022-10-06T10:43:29.581Z,13.15
2022-10-06T10:46:25.046Z,13.19
2022-10-06T10:49:08.027Z,13.30
2022-10-06T10:51:42.071Z,13.40
2022-10-06T10:54:28.836Z,13.54
2022-10-06T10:56:57.451Z,13.68
2022-10-06T10:59:31.833Z,13.80
2022-10-06T11:02:35.754Z,13.98
2022-10-06T11:05:16.348Z,14.19
2022-10-06T11:08:13.701Z,14.37
2022-10-06T11:10:58.274Z,14.55
2022-10-06T11:13:48.271Z,14.60
2022-10-06T11:16:51.307Z,14.71
2022-10-06T11:19:28.880Z,14.68
2022-10-06T11:22:20.906Z,14.62
2022-10-06T11:24:59.805Z,14.61
2022-10-06T11:27:55.711Z,14.57
2022-10-06T11:30:26.809Z,14.60
2022-10-06T11:33:02.056Z,14.67
2022-10-06T11:35:41.524Z,14.69
2022-10-06T11:38:16.129Z,14.78
2022-10-06T11:41:01.265Z,14.89
2022-10-06T11:43:46.213Z,15.08
2022-10-06T11:46:12.880Z,15.12
2022-10-06T11:48:40.619Z,15.17
2022-10-06T11:51:25.479Z,15.39
2022-10-06T11:53:52.855Z,15.57
2022-10-06T11:56:19.527Z,15.65
2022-10-06T11:58:52.205Z,15.72
2022-10-06T12:01:31.130Z,15.76
2022-10-06T12:04:05.450Z,15.83
2022-10-06T12:06:44.075Z,15.96
2022-10-06T12:09:32.796Z,16.07
2022-10-06T12:12:08.388Z,16.17
2022-10-06T12:18:04.409Z,16.30
2022-10-06T12:20:42.739Z,16.30
2022-10-06T12:23:09.344Z,16.32
2022-10-06T12:25:52.174Z,16.39
2022-10-06T12:28:34.288Z,16.53
2022-10-06T12:31:06.526Z,16.55
2022-10-06T12:33:43.838Z,16.65
2022-10-06T12:36:25.420Z,16.67
2022-10-06T12:39:07.282Z,16.61
2022-10-06T12:42:14.004Z,16.51
2022-10-06T12:44:51.771Z,16.48
2022-10-06T12:47:42.047Z,16.51
2022-10-06T12:50:25.475Z,16.54
2022-10-06T12:53:04.280Z,16.54
2022-10-06T12:55:42.339Z,16.56
2022-10-06T12:58:20.367Z,16.54
2022-10-06T13:00:48.038Z,16.57
2022-10-06T13:03:24.328Z,16.46
2022-10-06T13:05:55.196Z,16.33
2022-10-06T13:08:28.268Z,16.30
2022-10-06T13:11:26.476Z,16.20
2022-10-06T13:13:55.485Z,16.19
2022-10-06T13:16:26.295Z,16.15
2022-10-06T13:18:58.543Z,16.19
2022-10-06T13:21:26.183Z,16.21
2022-10-06T13:23:53.281Z,16.24
2022-10-06T13:26:29.399Z,16.21
2022-10-06T13:28:58.395Z,16.24
2022-10-06T13:31:26.807Z,16.22
2022-10-06T13:34:00.679Z,16.16
2022-10-06T13:36:29.723Z,16.19
2022-10-06T13:38:56.812Z,16.21
2022-10-06T13:41:38.116Z,16.29
2022-10-06T13:44:22.409Z,16.24
2022-10-06T13:46:56.796Z,16.13
2022-10-06T13:49:31.194Z,16.09
2022-10-06T13:52:08.854Z,16.15
2022-10-06T13:54:46.484Z,16.16
2022-10-06T13:57:46.682Z,16.11
2022-10-06T14:00:16.262Z,16.14
2022-10-06T14:02:45.188Z,16.18
2022-10-06T14:05:29.528Z,16.16
2022-10-06T14:07:59.925Z,16.14
2022-10-06T14:10:31.553Z,16.10
2022-10-06T14:13:06.233Z,16.15
2022-10-06T14:15:47.071Z,16.15
2022-10-06T14:18:27.392Z,16.14
2022-10-06T14:20:57.198Z,16.14
2022-10-06T14:23:34.958Z,16.13
2022-10-06T14:26:01.821Z,16.10
2022-10-06T14:28:28.771Z,16.08
2022-10-06T14:30:56.426Z,16.01
2022-10-06T14:33:27.322Z,15.97
2022-10-06T14:35:54.830Z,16.02
2022-10-06T14:38:22.299Z,16.00
2022-10-06T14:40:49.108Z,15.96
2022-10-06T14:43:15.809Z,15.92
2022-10-06T14:45:52.309Z,15.90
2022-10-06T14:48:19.088Z,15.90
2022-10-06T14:50:46.962Z,15.95
2022-10-06T14:53:17.598Z,15.99
2022-10-06T14:55:44.780Z,15.98
2022-10-06T14:58:14.399Z,15.86
2022-10-06T15:00:43.238Z,15.87
2022-10-06T15:03:10.170Z,15.81
2022-10-06T15:05:56.816Z,15.77
2022-10-06T15:08:23.408Z,15.78
2022-10-06T15:10:53.313Z,15.71
2022-10-06T15:13:20.040Z,15.69
2022-10-06T15:16:16.471Z,15.64
2022-10-06T15:18:44.320Z,15.61
2022-10-06T15:21:12.655Z,15.70
2022-10-06T15:23:39.656Z,15.77
2022-10-06T15:26:25.873Z,15.73
2022-10-06T15:29:01.824Z,15.72
2022-10-06T15:31:44.260Z,15.73
2022-10-06T15:34:15.827Z,15.69
2022-10-06T15:36:43.180Z,15.66
2022-10-06T15:39:21.758Z,15.63
2022-10-06T15:41:49.179Z,15.54
2022-10-06T15:44:17.076Z,15.56
2022-10-06T15:46:46.799Z,15.57
2022-10-06T15:49:16.580Z,15.45
2022-10-06T15:51:49.078Z,15.48
2022-10-06T15:54:21.032Z,15.55
2022-10-06T15:56:52.615Z,15.54
2022-10-06T15:59:22.656Z,15.52
2022-10-06T16:01:51.617Z,15.54
2022-10-06T16:04:41.828Z,15.51
2022-10-06T16:07:16.700Z,15.41
2022-10-06T16:09:46.329Z,15.39
2022-10-06T16:12:18.436Z,15.31
2022-10-06T16:14:49.519Z,15.23
2022-10-06T16:17:19.141Z,15.21
2022-10-06T16:19:47.003Z,15.17
2022-10-06T16:22:22.191Z,15.16
2022-10-06T16:24:50.009Z,15.15
2022-10-06T16:27:16.935Z,15.11
2022-10-06T16:29:59.856Z,15.08
2022-10-06T16:32:26.695Z,14.99
2022-10-06T16:34:53.334Z,14.98
2022-10-06T16:37:23.885Z,14.92
2022-10-06T16:39:50.633Z,14.85
2022-10-06T16:52:22.524Z,14.81
2022-10-06T16:55:31.327Z,14.74
2022-10-06T16:59:00.808Z,14.71
2022-10-06T17:01:38.685Z,14.60
2022-10-06T17:04:19.392Z,14.61
2022-10-06T17:11:28.845Z,14.36
2022-10-06T17:14:02.022Z,14.36
2022-10-06T17:19:56.867Z,14.13
2022-10-06T17:22:24.697Z,14.03
2022-10-06T17:24:54.589Z,13.97
2022-10-06T17:27:22.894Z,13.95
2022-10-06T17:29:55.575Z,13.91
2022-10-06T17:32:23.082Z,13.84
2022-10-06T17:34:55.903Z,13.78
2022-10-06T17:37:28.340Z,13.78
2022-10-06T17:40:05.553Z,13.79
2022-10-06T17:42:32.512Z,13.79
2022-10-06T17:45:46.972Z,13.79
2022-10-06T17:48:27.295Z,13.67
2022-10-06T17:51:00.570Z,13.68
2022-10-06T17:53:27.541Z,13.60
2022-10-06T17:55:55.233Z,13.57
2022-10-06T17:58:23.077Z,13.52
2022-10-06T18:00:50.917Z,13.47
2022-10-06T18:03:18.466Z,13.39
2022-10-06T18:05:53.616Z,13.36
2022-10-06T18:08:20.693Z,13.31
2022-10-06T18:11:07.172Z,13.28
2022-10-06T18:13:42.500Z,13.29
2022-10-06T18:16:22.855Z,13.28
2022-10-06T18:19:04.238Z,13.24
2022-10-06T18:21:43.030Z,13.20
2022-10-06T18:24:21.117Z,13.18
2022-10-06T18:29:38.623Z,13.14
2022-10-06T18:37:56.681Z,13.05
2022-10-06T18:40:23.519Z,13.06
2022-10-06T18:42:53.188Z,13.01
2022-10-06T18:45:49.524Z,13.01
2022-10-06T18:48:39.358Z,13.00
2022-10-06T18:54:32.827Z,13.06
2022-10-06T18:57:07.546Z,13.10
2022-10-06T18:59:35.312Z,13.14
2022-10-06T19:02:03.872Z,13.16
2022-10-06T19:04:35.265Z,13.19
2022-10-06T19:07:06.591Z,13.20
2022-10-06T19:10:02.285Z,13.19
2022-10-06T19:12:57.915Z,13.20
2022-10-06T19:16:13.362Z,13.25
2022-10-06T19:29:53.790Z,13.35
2022-10-06T19:32:42.106Z,13.37
2022-10-06T19:38:49.310Z,13.37
2022-10-06T19:41:41.367Z,13.37
2022-10-06T19:44:09.598Z,13.33
2022-10-06T19:46:37.722Z,13.29
2022-10-06T19:49:06.324Z,13.24
2022-10-06T19:51:34.391Z,13.18
2022-10-06T19:54:03.543Z,13.18
2022-10-06T19:56:32.920Z,13.19
2022-10-06T19:59:01.091Z,13.17
2022-10-06T20:01:29.206Z,13.19
2022-10-06T20:03:56.440Z,13.21
2022-10-06T20:06:23.804Z,13.23
2022-10-06T20:08:51.760Z,13.21
2022-10-06T20:11:22.483Z,13.23
2022-10-06T20:13:50.459Z,13.20
2022-10-06T20:16:19.934Z,13.16
2022-10-06T20:18:50.559Z,13.12
2022-10-06T20:31:04.335Z,13.12
2022-10-06T20:33:33.926Z,13.13
2022-10-06T20:36:02.401Z,13.11
2022-10-06T20:38:47.877Z,13.13
2022-10-06T20:42:15.294Z,13.14
2022-10-06T20:45:35.836Z,13.15
2022-10-06T20:48:02.609Z,13.19
2022-10-06T20:57:53.728Z,13.19
2022-10-06T21:07:16.287Z,13.18
2022-10-06T21:09:43.310Z,13.18
2022-10-06T21:19:19.337Z,13.13
2022-10-06T21:25:33.064Z,13.13
2022-10-06T21:27:59.871Z,13.14
2022-10-06T21:30:29.936Z,13.15
2022-10-06T21:32:57.681Z,13.15
2022-10-06T21:35:24.452Z,13.13
2022-10-06T21:37:51.301Z,13.15
2022-10-06T21:40:24.226Z,13.14
2022-10-06T21:42:51.969Z,13.13
2022-10-06T21:48:09.421Z,13.09
2022-10-06T21:50:36.118Z,13.09
2022-10-06T21:53:02.956Z,13.09
2022-10-06T21:55:29.623Z,13.05
2022-10-06T21:57:56.284Z,13.06
2022-10-06T22:00:23.417Z,13.07
2022-10-06T22:02:50.433Z,13.03
2022-10-06T22:05:19.926Z,13.00
2022-10-06T22:07:46.826Z,13.02
2022-10-06T22:12:56.325Z,12.96
2022-10-06T22:18:07.061Z,12.92
2022-10-06T22:20:34.677Z,12.92
2022-10-06T22:23:11.678Z,12.91
2022-10-06T22:25:38.319Z,12.88
2022-10-06T22:28:19.747Z,12.87
2022-10-06T22:30:46.427Z,12.89
2022-10-06T22:33:13.466Z,12.88
2022-10-06T22:35:52.912Z,12.87
2022-10-06T22:38:19.610Z,12.81
2022-10-06T22:40:48.063Z,12.77
2022-10-06T22:43:14.865Z,12.78
2022-10-06T22:48:25.581Z,12.77
2022-10-06T22:50:57.075Z,12.78
2022-10-06T22:53:25.234Z,12.75
2022-10-06T22:55:52.733Z,12.67
2022-10-06T22:58:19.764Z,12.71
2022-10-06T23:00:46.488Z,12.69
2022-10-06T23:03:13.433Z,12.67
2022-10-06T23:05:40.610Z,12.64
2022-10-06T23:08:08.022Z,12.61
2022-10-06T23:10:35.870Z,12.61
2022-10-06T23:13:03.386Z,12.57
2022-10-06T23:15:30.622Z,12.54
2022-10-06T23:18:00.519Z,12.53
2022-10-06T23:20:27.993Z,12.54
2022-10-06T23:22:55.875Z,12.52
2022-10-06T23:25:27.024Z,12.54
2022-10-06T23:27:53.953Z,12.56
2022-10-06T23:30:20.728Z,12.56
2022-10-06T23:32:47.376Z,12.53
2022-10-06T23:35:14.086Z,12.53
2022-10-06T23:37:40.886Z,12.52
2022-10-06T23:40:09.127Z,12.54
2022-10-06T23:42:35.785Z,12.55
2022-10-06T23:45:02.411Z,12.49
2022-10-06T23:47:29.490Z,12.49
2022-10-06T23:49:56.209Z,12.43
2022-10-06T23:52:22.967Z,12.40
2022-10-06T23:54:49.737Z,12.40
2022-10-06T23:57:18.737Z,12.35
2022-10-06T23:59:45.361Z,12.33
